Stow Creek Twp, New Jersey
Current Conditions -  °F | °C
As of 1:54 AM on Saturday 25 Oct 2014 (Local Time) from KMIV Reporting Station
Clear Clear  
Wind Chill: 50°   Ceiling: Unl
Heat Index: 50°   Visibility: 10mi
Dew Point: 40°   Wind: 8mph
Humidity: 68%   Direction: 290°WNW
Pressure: 29.9"   Gusts: NA
Location:  39.4433°N, 75.2554°W
Report Text: KMIV 250554Z AUTO 29007KT 10SM CLR 10/04 A2990 RMK AO2 SLP122 T01000044 10144 20089 51004
Loading
Personal Weather Stations






























Interactive Weather Map
Tropical Storm Tracking
New forecast layout! Learn more

10-Day Weather Forecast

Advertisements
Track Severe Weather on mobile